Time;durP1;ratioP1;P1;durP2;ratioP2;P2;SDS_P1;SDS_P2;PMS_P1;PMS_P2;Temp;Humidity;BMP_temperature;BMP_pressure;BME280_temperature;BME280_humidity;BME280_pressure;Samples;Min_cycle;Max_cycle;Signal;HPM_P1;HPM_P2
2022/03/20 00:00:15;;;;;;;7.60;3.67;;;;;;;4.76;61.00;97320.34;5036937;28;20704;-73
2022/03/20 00:02:43;;;;;;;5.63;3.57;;;;;;;4.63;61.28;97323.03;5036675;28;20201;-72
2022/03/20 00:05:10;;;;;;;9.70;5.67;;;;;;;4.83;59.91;97317.97;5036677;28;20647;-72
2022/03/20 00:07:38;;;;;;;11.37;5.43;;;;;;;4.68;59.12;97330.53;5036452;28;20219;-72
2022/03/20 00:10:07;;;;;;;11.53;4.73;;;;;;;4.65;60.67;97320.31;5037305;28;20208;-72
2022/03/20 00:12:33;;;;;;;6.30;3.47;;;;;;;4.45;60.77;97313.97;5036610;28;20204;-72
2022/03/20 00:15:00;;;;;;;8.13;4.93;;;;;;;4.52;60.31;97311.72;5036501;28;20225;-72
2022/03/20 00:17:28;;;;;;;8.77;3.10;;;;;;;4.89;59.69;97311.47;5037477;28;20279;-72
2022/03/20 00:19:54;;;;;;;7.20;4.03;;;;;;;4.72;60.14;97316.28;5036964;28;20205;-72
2022/03/20 00:22:21;;;;;;;9.53;4.13;;;;;;;4.47;60.67;97319.91;5035451;28;20205;-72
2022/03/20 00:24:47;;;;;;;7.33;4.27;;;;;;;4.44;61.18;97316.69;5036595;28;20221;-72
2022/03/20 00:27:15;;;;;;;3.83;2.87;;;;;;;4.74;60.47;97317.03;5036820;28;20201;-72
2022/03/20 00:29:42;;;;;;;6.83;3.97;;;;;;;4.67;60.83;97319.25;5035974;28;20205;-72
2022/03/20 00:32:11;;;;;;;12.87;4.70;;;;;;;4.36;61.63;97316.44;5035958;28;20213;-72
2022/03/20 00:34:39;;;;;;;7.40;4.00;;;;;;;4.44;61.76;97322.75;5036488;28;20595;-72
2022/03/20 00:37:07;;;;;;;10.53;3.40;;;;;;;4.46;61.42;97322.63;5036398;28;20213;-72
2022/03/20 00:39:34;;;;;;;8.47;4.13;;;;;;;4.44;61.05;97327.97;5036869;28;20201;-72
2022/03/20 00:42:00;;;;;;;13.20;5.23;;;;;;;4.38;61.46;97330.22;5036601;28;20214;-73
2022/03/20 00:44:27;;;;;;;7.77;4.53;;;;;;;4.16;61.70;97319.66;5032950;28;20467;-72
2022/03/20 00:46:54;;;;;;;6.00;3.57;;;;;;;4.20;62.38;97322.88;5036694;28;20211;-72
2022/03/20 00:49:20;;;;;;;17.27;4.70;;;;;;;4.28;61.88;97329.22;5036232;28;20689;-72
2022/03/20 00:51:48;;;;;;;11.80;5.33;;;;;;;4.40;62.57;97323.94;5036692;28;20238;-72
2022/03/20 00:54:15;;;;;;;14.23;4.63;;;;;;;4.22;62.90;97334.88;5036606;28;20228;-72
2022/03/20 00:56:42;;;;;;;6.80;4.97;;;;;;;4.08;63.45;97329.00;5036955;28;20197;-72
2022/03/20 00:59:08;;;;;;;7.00;3.60;;;;;;;4.00;64.25;97329.56;5037429;28;20205;-72
2022/03/20 01:01:35;;;;;;;6.47;4.33;;;;;;;3.94;64.09;97323.97;5037039;28;20904;-72
2022/03/20 01:04:01;;;;;;;10.60;3.67;;;;;;;3.84;64.07;97328.97;5035520;28;20227;-72
2022/03/20 01:06:28;;;;;;;8.23;3.93;;;;;;;4.06;63.96;97336.09;5036592;28;20212;-72
2022/03/20 01:08:55;;;;;;;9.03;4.27;;;;;;;4.05;63.89;97326.59;5036292;28;20219;-72
2022/03/20 01:11:22;;;;;;;9.80;4.47;;;;;;;3.75;64.83;97334.84;5036243;28;20193;-72
2022/03/20 01:13:48;;;;;;;7.43;4.47;;;;;;;3.71;65.24;97330.81;5035225;28;20231;-72
2022/03/20 01:16:15;;;;;;;6.27;3.70;;;;;;;3.62;64.99;97323.63;5035880;28;20216;-72
2022/03/20 01:18:42;;;;;;;11.73;3.77;;;;;;;3.83;64.18;97323.88;5036176;28;21096;-72
2022/03/20 01:21:08;;;;;;;6.70;4.53;;;;;;;3.71;65.53;97328.19;5036351;28;20216;-72
2022/03/20 01:23:35;;;;;;;12.20;4.80;;;;;;;3.77;65.10;97316.53;5035590;28;20271;-72
2022/03/20 01:26:02;;;;;;;6.83;4.27;;;;;;;3.77;66.06;97326.94;5036051;28;20213;-72
2022/03/20 01:28:29;;;;;;;16.83;4.60;;;;;;;3.49;66.31;97329.00;5036294;28;20231;-72
2022/03/20 01:30:56;;;;;;;9.40;4.30;;;;;;;3.46;67.13;97326.63;5036322;28;20204;-72
2022/03/20 01:33:23;;;;;;;7.07;3.77;;;;;;;3.54;66.98;97321.69;5034992;28;20274;-72
2022/03/20 01:35:49;;;;;;;13.33;5.63;;;;;;;3.47;66.26;97326.50;5035616;28;20244;-72
2022/03/20 01:38:19;;;;;;;11.10;3.97;;;;;;;3.46;66.54;97326.63;5036598;28;20200;-72
2022/03/20 01:40:47;;;;;;;7.53;4.40;;;;;;;3.54;66.88;97330.34;5036594;28;20205;-72
2022/03/20 01:43:15;;;;;;;6.80;3.93;;;;;;;3.55;66.40;97331.16;5034557;28;20745;-72
2022/03/20 01:45:41;;;;;;;12.87;4.47;;;;;;;3.40;66.31;97334.84;5033029;28;20197;-72
2022/03/20 01:48:08;;;;;;;8.60;5.63;;;;;;;3.47;65.54;97334.31;5040444;28;20205;-72
2022/03/20 01:50:35;;;;;;;8.63;3.23;;;;;;;3.39;64.49;97338.41;5039442;28;20200;-72
2022/03/20 01:53:01;;;;;;;10.10;5.73;;;;;;;3.47;64.83;97343.91;5038594;28;20530;-72
2022/03/20 01:55:29;;;;;;;7.73;4.97;;;;;;;3.67;64.77;97339.78;5039825;28;20242;-72
2022/03/20 01:57:56;;;;;;;9.77;4.70;;;;;;;3.43;64.68;97345.91;5039041;28;20303;-72
2022/03/20 02:00:26;;;;;;;7.93;3.83;;;;;;;3.66;64.88;97345.94;5038675;28;20212;-72
2022/03/20 02:02:54;;;;;;;6.43;4.97;;;;;;;3.71;64.57;97349.03;5038193;28;20673;-72
2022/03/20 02:05:21;;;;;;;11.60;3.93;;;;;;;3.71;63.72;97354.25;5039317;28;20225;-72
2022/03/20 02:07:49;;;;;;;6.07;3.07;;;;;;;3.65;64.41;97351.25;5039884;28;20197;-72
2022/03/20 02:10:16;;;;;;;9.83;4.33;;;;;;;3.49;64.60;97342.88;5039918;28;20200;-72
2022/03/20 02:12:43;;;;;;;8.43;4.37;;;;;;;3.25;65.78;97344.56;5038564;28;20216;-72
2022/03/20 02:15:13;;;;;;;9.20;5.93;;;;;;;3.54;66.34;97339.94;5038836;28;20236;-72
2022/03/20 02:17:42;;;;;;;11.13;5.10;;;;;;;3.53;66.27;97344.31;5038763;28;20205;-72
2022/03/20 02:20:10;;;;;;;8.53;3.87;;;;;;;3.16;66.00;97336.56;5038839;28;20208;-72
2022/03/20 02:22:40;;;;;;;9.00;4.27;;;;;;;3.41;67.02;97333.91;5038012;28;20860;-72
2022/03/20 02:25:09;;;;;;;6.83;3.70;;;;;;;3.47;66.08;97338.69;5038420;28;20717;-72
2022/03/20 02:27:39;;;;;;;6.60;3.57;;;;;;;3.38;66.98;97334.13;5039061;28;20204;-72
2022/03/20 02:30:12;;;;;;;7.03;3.70;;;;;;;3.22;67.77;97341.34;5038826;28;20205;-72
2022/03/20 02:32:40;;;;;;;4.03;2.83;;;;;;;2.97;68.14;97336.16;5037829;28;20251;-72
2022/03/20 02:35:11;;;;;;;6.40;3.83;;;;;;;3.01;68.39;97340.22;5038495;28;20232;-72
2022/03/20 02:37:41;;;;;;;10.33;4.00;;;;;;;3.17;68.58;97333.00;5038903;28;20685;-72
2022/03/20 02:40:09;;;;;;;5.40;4.03;;;;;;;3.10;67.95;97334.38;5038715;28;20205;-72
2022/03/20 02:42:37;;;;;;;4.03;3.03;;;;;;;2.86;68.60;97330.03;5037522;28;20677;-72
2022/03/20 02:45:06;;;;;;;4.80;3.40;;;;;;;2.80;68.45;97328.66;5035590;28;20235;-72
2022/03/20 02:47:35;;;;;;;7.23;3.30;;;;;;;2.84;67.91;97324.91;5038112;28;20200;-72
2022/03/20 02:50:06;;;;;;;6.07;3.60;;;;;;;2.74;68.72;97329.06;5038303;28;20270;-72
2022/03/20 02:52:45;;;;;;;5.17;3.43;;;;;;;2.79;69.25;97337.41;5038440;28;20258;-72
2022/03/20 02:55:12;;;;;;;8.10;4.27;;;;;;;2.67;68.82;97345.19;5037729;28;20267;-72
2022/03/20 02:57:39;;;;;;;5.23;2.73;;;;;;;2.74;68.23;97339.50;5037160;28;20208;-72
2022/03/20 03:00:07;;;;;;;9.43;3.97;;;;;;;2.92;68.42;97340.84;5038450;28;20686;-72
2022/03/20 03:02:36;;;;;;;7.33;4.97;;;;;;;3.00;68.61;97348.97;5038576;28;20223;-72
2022/03/20 03:05:03;;;;;;;12.20;4.80;;;;;;;2.85;68.29;97346.56;5038223;28;20596;-72
2022/03/20 03:07:31;;;;;;;12.33;5.10;;;;;;;3.00;67.83;97354.16;5038963;28;20208;-72
2022/03/20 03:12:44;;;;;;;7.23;4.07;;;;;;;2.82;68.69;97354.59;5038049;28;20204;-72
2022/03/20 03:15:19;;;;;;;8.60;4.27;;;;;;;2.67;68.92;97353.84;5038128;28;20230;-72
2022/03/20 03:17:46;;;;;;;8.47;3.33;;;;;;;2.74;68.81;97355.09;5038054;28;20702;-72
2022/03/20 03:20:13;;;;;;;5.70;4.13;;;;;;;2.52;69.39;97362.69;5037664;28;20686;-72
2022/03/20 03:22:40;;;;;;;6.80;3.27;;;;;;;2.32;70.29;97356.25;5037110;28;20587;-72
2022/03/20 03:25:08;;;;;;;5.30;3.43;;;;;;;2.59;70.25;97347.50;5037663;28;20221;-72
2022/03/20 03:27:35;;;;;;;7.53;5.03;;;;;;;2.29;70.43;97348.66;5037854;28;20895;-72
2022/03/20 03:30:02;;;;;;;6.17;3.67;;;;;;;2.05;71.39;97345.06;5037608;28;20219;-72
2022/03/20 03:32:28;;;;;;;8.70;4.37;;;;;;;1.96;71.66;97343.91;5037171;28;20208;-70
2022/03/20 03:37:39;;;;;;;4.67;3.27;;;;;;;2.46;71.75;97347.47;5037429;28;20258;-70
2022/03/20 03:40:08;;;;;;;24.03;4.23;;;;;;;2.77;71.11;97344.47;5037408;28;20204;-70
2022/03/20 03:42:36;;;;;;;9.83;5.17;;;;;;;2.71;71.56;97331.91;5036712;28;20208;-70
2022/03/20 03:45:03;;;;;;;11.27;3.97;;;;;;;2.59;70.82;97332.69;5033597;28;20236;-70
2022/03/20 03:47:29;;;;;;;8.13;4.87;;;;;;;2.52;71.97;97333.19;5037224;28;20204;-70
2022/03/20 03:49:56;;;;;;;8.57;3.67;;;;;;;2.64;71.54;97330.63;5037270;28;20212;-70
2022/03/20 03:52:22;;;;;;;11.63;3.60;;;;;;;2.74;72.06;97326.47;5036102;28;20201;-70
2022/03/20 03:54:49;;;;;;;8.67;4.27;;;;;;;2.94;72.29;97328.56;5037610;28;20592;-70
2022/03/20 03:57:19;;;;;;;11.33;5.33;;;;;;;3.36;72.95;97346.41;5037458;28;20220;-70
2022/03/20 03:59:45;;;;;;;5.73;3.80;;;;;;;3.11;72.26;97367.28;5036761;28;20205;-70
2022/03/20 04:02:12;;;;;;;9.77;5.17;;;;;;;3.09;71.08;97374.38;5036350;28;20254;-70
2022/03/20 04:04:39;;;;;;;8.80;6.17;;;;;;;3.51;69.36;97356.59;5037482;28;20709;-70
2022/03/20 04:07:06;;;;;;;9.03;3.73;;;;;;;3.68;69.23;97364.09;5036721;28;20212;-70
2022/03/20 04:09:32;;;;;;;18.07;6.40;;;;;;;3.77;69.58;97361.66;5036367;28;20204;-70
2022/03/20 04:11:59;;;;;;;6.63;4.87;;;;;;;4.00;69.20;97366.06;5037025;28;20296;-70
2022/03/20 04:14:28;;;;;;;16.53;5.73;;;;;;;4.09;68.78;97369.81;5038612;28;20217;-71
2022/03/20 04:16:55;;;;;;;14.47;5.43;;;;;;;3.61;69.90;97380.25;5038287;28;20225;-70
2022/03/20 04:19:22;;;;;;;6.00;4.20;;;;;;;3.84;68.74;97369.88;5037940;28;20290;-70
2022/03/20 04:21:49;;;;;;;8.47;3.97;;;;;;;3.99;69.33;97368.78;5037258;28;20669;-70
2022/03/20 04:24:15;;;;;;;6.57;3.87;;;;;;;3.70;70.39;97378.69;5035804;28;20221;-70
2022/03/20 04:26:42;;;;;;;5.43;3.83;;;;;;;3.83;69.95;97389.06;5036907;28;20688;-70
2022/03/20 04:29:08;;;;;;;8.97;4.73;;;;;;;3.99;70.08;97381.81;5036787;28;20979;-70
2022/03/20 04:31:37;;;;;;;9.20;5.40;;;;;;;4.19;69.30;97379.44;5036457;28;20213;-70
2022/03/20 04:34:04;;;;;;;10.63;6.47;;;;;;;4.04;69.37;97385.75;5036354;28;20229;-70
2022/03/20 04:36:31;;;;;;;20.17;7.33;;;;;;;4.03;70.05;97385.88;5036791;28;20260;-71
2022/03/20 04:39:00;;;;;;;8.67;3.87;;;;;;;3.99;70.14;97393.06;5036478;28;20259;-70
2022/03/20 04:41:27;;;;;;;11.87;5.30;;;;;;;4.03;69.75;97381.47;5036166;28;20197;-70
2022/03/20 04:43:54;;;;;;;9.07;5.17;;;;;;;3.96;70.23;97375.06;5035868;28;21010;-70
2022/03/20 04:46:21;;;;;;;11.30;5.57;;;;;;;3.87;70.83;97375.72;5033388;28;20197;-70
2022/03/20 04:59:47;;;;;;;9.93;5.20;;;;;;;3.57;70.50;97402.28;5037225;28;20204;-70
2022/03/20 05:02:13;;;;;;;6.47;3.90;;;;;;;3.61;70.38;97408.94;5037513;28;20208;-70
2022/03/20 05:04:41;;;;;;;9.67;4.50;;;;;;;3.61;70.26;97398.50;5036515;28;20232;-70
2022/03/20 05:07:08;;;;;;;17.97;5.20;;;;;;;3.37;70.53;97397.59;5037630;28;20209;-71
2022/03/20 05:15:07;;;;;;;24.90;4.30;;;;;;;3.17;71.23;97416.34;5037377;28;20251;-71
2022/03/20 05:17:34;;;;;;;8.43;3.70;;;;;;;3.15;70.58;97410.41;5036593;28;20200;-70
2022/03/20 05:20:02;;;;;;;6.60;3.67;;;;;;;3.31;70.72;97403.22;5035940;28;20205;-70
2022/03/20 05:22:28;;;;;;;9.57;5.37;;;;;;;3.03;71.55;97408.66;5038360;28;20945;-71
2022/03/20 05:24:55;;;;;;;12.83;3.93;;;;;;;3.02;70.91;97413.00;5040588;28;20227;-70
2022/03/20 05:27:21;;;;;;;9.07;4.43;;;;;;;2.88;72.44;97412.28;5039534;28;20208;-70
2022/03/20 05:29:48;;;;;;;10.80;4.10;;;;;;;2.82;72.23;97404.88;5039746;28;20921;-70
2022/03/20 05:32:15;;;;;;;7.17;4.77;;;;;;;2.73;71.54;97408.06;5039823;28;20821;-71
2022/03/20 05:34:42;;;;;;;9.20;4.47;;;;;;;2.79;71.52;97412.88;5039846;28;20316;-70
2022/03/20 05:37:11;;;;;;;6.30;4.50;;;;;;;3.00;71.54;97421.03;5039602;28;20917;-70
2022/03/20 05:39:39;;;;;;;5.67;3.53;;;;;;;2.99;72.29;97422.78;5039611;28;20219;-70
2022/03/20 05:42:06;;;;;;;8.53;4.97;;;;;;;2.77;72.35;97424.34;5039546;28;20205;-71
2022/03/20 05:44:33;;;;;;;7.47;4.03;;;;;;;2.62;72.64;97430.53;5037039;28;20758;-71
2022/03/20 05:47:01;;;;;;;11.87;5.63;;;;;;;2.77;73.42;97425.16;5040053;28;20210;-71
2022/03/20 05:49:28;;;;;;;8.43;4.73;;;;;;;2.80;72.76;97427.56;5039655;28;20236;-71
2022/03/20 05:51:55;;;;;;;13.83;5.73;;;;;;;2.78;72.62;97447.66;5039416;28;20201;-71
2022/03/20 05:54:23;;;;;;;7.73;4.80;;;;;;;3.03;72.48;97438.13;5039043;28;20318;-70
2022/03/20 05:59:34;;;;;;;9.30;4.73;;;;;;;2.82;72.29;97449.09;5039159;28;20313;-71
2022/03/20 06:02:00;;;;;;;4.50;3.77;;;;;;;2.98;72.22;97438.50;5039438;28;20230;-70
2022/03/20 06:04:27;;;;;;;12.57;4.60;;;;;;;3.04;71.80;97446.75;5038253;28;21080;-71
2022/03/20 06:06:53;;;;;;;11.93;4.23;;;;;;;2.82;72.91;97454.31;5039075;28;20197;-70
2022/03/20 06:09:21;;;;;;;12.63;4.60;;;;;;;2.82;72.71;97454.31;5039329;28;20209;-70
2022/03/20 06:11:48;;;;;;;11.60;4.87;;;;;;;3.15;72.59;97446.88;5039673;28;20313;-70
2022/03/20 06:14:17;;;;;;;13.43;5.20;;;;;;;3.15;72.05;97454.69;5038380;28;20225;-70
2022/03/20 06:16:47;;;;;;;14.70;6.40;;;;;;;3.10;72.29;97454.16;5039158;28;20258;-70
2022/03/20 06:19:15;;;;;;;6.10;3.20;;;;;;;3.27;72.55;97461.66;5038915;28;20203;-70
2022/03/20 06:21:42;;;;;;;7.10;4.80;;;;;;;3.15;72.78;97463.31;5038477;28;20207;-70
2022/03/20 06:24:08;;;;;;;9.83;4.33;;;;;;;3.32;72.46;97462.19;5037904;28;20228;-70
2022/03/20 06:26:35;;;;;;;7.10;4.50;;;;;;;3.49;72.47;97469.69;5038357;28;21293;-71
2022/03/20 06:29:05;;;;;;;8.97;5.37;;;;;;;3.72;72.04;97473.22;5038719;28;20518;-70
2022/03/20 06:31:32;;;;;;;6.37;3.00;;;;;;;3.79;71.12;97473.63;5038663;28;20203;-70
2022/03/20 06:33:58;;;;;;;12.47;5.23;;;;;;;3.77;70.85;97489.38;5037913;28;20227;-71
2022/03/20 06:36:25;;;;;;;13.63;5.17;;;;;;;3.94;70.19;97476.00;5038412;28;20220;-70
2022/03/20 06:38:51;;;;;;;9.93;5.10;;;;;;;3.98;70.26;97477.47;5038137;28;20205;-71
2022/03/20 06:41:18;;;;;;;10.73;4.97;;;;;;;3.91;72.19;97476.22;5038822;28;20208;-71
2022/03/20 06:43:45;;;;;;;10.87;5.40;;;;;;;4.04;72.46;97492.69;5037407;28;20264;-70
2022/03/20 06:46:13;;;;;;;19.30;6.47;;;;;;;4.40;71.31;97482.25;5036366;28;20204;-71
2022/03/20 06:48:39;;;;;;;9.40;5.60;;;;;;;4.30;71.81;97489.06;5038702;28;20204;-71
2022/03/20 06:51:06;;;;;;;9.53;5.17;;;;;;;4.43;71.76;97490.72;5039685;28;20216;-71
2022/03/20 06:53:32;;;;;;;9.73;5.17;;;;;;;4.57;70.88;97487.09;5037738;28;20217;-70
2022/03/20 06:55:59;;;;;;;14.13;7.27;;;;;;;4.70;71.51;97493.09;5038381;28;20363;-71
2022/03/20 06:58:27;;;;;;;14.77;7.50;;;;;;;4.82;70.65;97487.81;5038192;28;20231;-70
2022/03/20 07:00:53;;;;;;;11.60;6.07;;;;;;;4.80;70.92;97486.25;5037914;28;20201;-71
2022/03/20 07:03:21;;;;;;;14.60;7.60;;;;;;;5.03;69.70;97492.31;5037743;28;20208;-70
2022/03/20 07:05:48;;;;;;;20.77;8.03;;;;;;;4.94;69.29;97492.97;5038492;28;20219;-71
2022/03/20 07:08:14;;;;;;;14.23;5.67;;;;;;;5.03;68.54;97497.53;5037751;28;20197;-70
2022/03/20 07:10:42;;;;;;;15.33;6.70;;;;;;;5.05;68.15;97506.09;5038186;28;20616;-70
2022/03/20 07:16:07;;;;;;;22.23;6.13;;;;;;;5.19;67.93;97505.88;5015613;28;20218;-70
2022/03/20 07:18:36;;;;;;;16.90;7.67;;;;;;;5.61;68.30;97511.38;5014861;28;20209;-71
2022/03/20 07:21:02;;;;;;;12.50;6.57;;;;;;;5.56;67.45;97503.03;5024503;28;20244;-70
2022/03/20 07:23:29;;;;;;;12.43;6.40;;;;;;;5.60;66.65;97509.69;5037485;28;20232;-71
2022/03/20 07:31:23;;;;;;;11.80;5.70;;;;;;;5.88;66.07;97519.75;5036782;28;20207;-73
2022/03/20 07:33:51;;;;;;;28.05;10.30;;;;;;;5.80;68.02;97516.88;5033540;28;20462;-72
2022/03/20 07:36:18;;;;;;;16.40;7.77;;;;;;;5.98;66.57;97523.31;5037403;28;20236;-71
2022/03/20 07:38:45;;;;;;;17.33;7.83;;;;;;;6.10;65.97;97520.59;5037735;28;20207;-70
2022/03/20 07:41:12;;;;;;;17.67;7.50;;;;;;;6.15;66.83;97523.69;5038386;28;20205;-70
2022/03/20 07:43:38;;;;;;;10.57;5.57;;;;;;;6.16;65.37;97524.50;5037179;28;20240;-70
2022/03/20 07:46:06;;;;;;;22.20;8.23;;;;;;;6.39;64.12;97521.78;5036212;28;20201;-71
2022/03/20 07:48:34;;;;;;;8.67;4.90;;;;;;;6.31;66.10;97518.94;5037116;28;20243;-71
2022/03/20 07:51:02;;;;;;;29.47;6.87;;;;;;;6.54;63.41;97517.09;5036870;28;20622;-71
2022/03/20 07:53:28;;;;;;;16.07;6.27;;;;;;;6.54;63.98;97517.91;5036744;28;20208;-71
2022/03/20 07:55:55;;;;;;;17.47;7.13;;;;;;;6.84;62.90;97507.63;5036781;28;20208;-71
2022/03/20 07:58:21;;;;;;;16.83;6.40;;;;;;;6.62;63.49;97518.16;5037225;28;20197;-71
2022/03/20 08:00:48;;;;;;;15.23;6.37;;;;;;;6.63;64.00;97516.38;5037470;28;20200;-71
2022/03/20 08:03:15;;;;;;;14.90;7.07;;;;;;;6.78;62.49;97514.22;5036071;28;21012;-71
2022/03/20 08:05:41;;;;;;;11.63;5.27;;;;;;;6.81;63.50;97515.72;5037002;28;20557;-71
2022/03/20 08:08:14;;;;;;;13.87;6.53;;;;;;;6.80;62.54;97529.78;5037024;28;20216;-71
2022/03/20 08:10:41;;;;;;;19.37;7.50;;;;;;;6.94;63.07;97524.28;5037457;28;20574;-72
2022/03/20 08:13:09;;;;;;;15.17;6.93;;;;;;;7.18;61.43;97522.25;5036199;28;20681;-71
2022/03/20 08:15:36;;;;;;;12.17;5.40;;;;;;;7.24;62.70;97524.41;5036741;28;20198;-71
2022/03/20 08:18:04;;;;;;;13.20;5.83;;;;;;;7.25;62.32;97512.97;5036735;28;20225;-71
2022/03/20 08:20:31;;;;;;;17.03;7.37;;;;;;;7.28;62.88;97519.59;5036704;28;20592;-71
2022/03/20 08:22:57;;;;;;;15.47;5.83;;;;;;;7.32;61.79;97525.44;5035902;28;20224;-71
2022/03/20 08:25:26;;;;;;;18.27;7.00;;;;;;;7.54;61.71;97520.91;5036744;28;20596;-71
2022/03/20 08:27:53;;;;;;;21.63;9.40;;;;;;;7.67;62.46;97513.66;5037508;28;20203;-71
2022/03/20 08:30:20;;;;;;;13.97;6.43;;;;;;;7.72;62.31;97513.28;5037271;28;20205;-71
2022/03/20 08:32:47;;;;;;;16.80;6.03;;;;;;;7.25;62.59;97523.44;5035587;28;20205;-71
2022/03/20 08:35:14;;;;;;;15.13;6.30;;;;;;;7.56;62.65;97516.38;5036490;28;20221;-71
2022/03/20 08:37:43;;;;;;;17.63;8.00;;;;;;;7.67;62.08;97515.47;5036724;28;20282;-71
2022/03/20 08:40:15;;;;;;;20.87;8.30;;;;;;;8.13;61.90;97524.56;5036554;28;20201;-71
2022/03/20 08:42:44;;;;;;;19.17;7.30;;;;;;;8.44;60.57;97527.09;5035711;28;20197;-71
2022/03/20 08:45:11;;;;;;;18.17;7.80;;;;;;;8.52;58.10;97528.06;5032995;28;20771;-71
2022/03/20 08:47:38;;;;;;;15.30;7.47;;;;;;;8.59;58.31;97523.13;5036661;28;20197;-72
2022/03/20 08:50:05;;;;;;;14.80;6.47;;;;;;;8.63;59.68;97525.34;5036474;28;20212;-71
2022/03/20 08:52:31;;;;;;;16.43;6.30;;;;;;;8.85;58.89;97535.63;5035711;28;20571;-71
2022/03/20 08:54:58;;;;;;;15.40;6.50;;;;;;;8.78;58.11;97533.69;5036383;28;20234;-71
2022/03/20 08:57:25;;;;;;;17.93;7.13;;;;;;;8.89;57.67;97531.78;5039561;28;20221;-71
2022/03/20 08:59:54;;;;;;;19.13;6.63;;;;;;;9.34;59.70;97522.41;5040411;28;20300;-71
2022/03/20 09:02:20;;;;;;;18.03;7.37;;;;;;;9.29;57.56;97519.34;5039572;28;20634;-71
2022/03/20 09:04:47;;;;;;;15.97;7.17;;;;;;;9.39;57.24;97525.44;5040239;28;20221;-71
2022/03/20 09:07:13;;;;;;;21.60;7.67;;;;;;;9.45;57.66;97520.47;5040642;28;20212;-71
2022/03/20 09:09:40;;;;;;;14.80;7.43;;;;;;;9.59;56.48;97520.03;5040410;28;20197;-71
2022/03/20 09:12:08;;;;;;;16.37;7.10;;;;;;;9.78;55.98;97528.75;5039676;28;20681;-71
2022/03/20 09:14:34;;;;;;;18.07;8.20;;;;;;;9.87;56.50;97533.16;5039565;28;20220;-71
2022/03/20 09:19:46;;;;;;;18.33;7.73;;;;;;;10.05;55.80;97520.13;5040252;28;20274;-71
2022/03/20 09:22:16;;;;;;;16.93;7.10;;;;;;;10.14;54.62;97522.72;5039606;28;20201;-71
2022/03/20 09:24:42;;;;;;;28.43;7.90;;;;;;;10.10;55.41;97524.00;5040118;28;20224;-72
2022/03/20 09:27:09;;;;;;;20.60;7.83;;;;;;;10.15;55.47;97516.50;5039958;28;20205;-71
2022/03/20 09:29:35;;;;;;;19.07;8.67;;;;;;;10.25;56.34;97516.47;5040323;28;20197;-71
2022/03/20 09:32:04;;;;;;;18.00;7.67;;;;;;;10.69;52.88;97521.81;5040040;28;20689;-71
2022/03/20 09:34:32;;;;;;;26.57;10.20;;;;;;;10.89;53.53;97511.00;5039577;28;20217;-71
2022/03/20 09:36:58;;;;;;;22.80;6.70;;;;;;;10.85;52.87;97511.47;5040231;28;20320;-71
2022/03/20 09:39:26;;;;;;;21.57;8.50;;;;;;;10.89;54.28;97508.38;5040036;28;20205;-71
2022/03/20 09:41:55;;;;;;;20.77;9.67;;;;;;;11.01;52.04;97508.03;5039135;28;20204;-71
2022/03/20 09:44:22;;;;;;;16.60;7.73;;;;;;;11.24;52.73;97503.97;5036037;28;20233;-71
2022/03/20 09:46:49;;;;;;;26.47;9.40;;;;;;;11.48;53.38;97512.13;5040519;28;20208;-71
2022/03/20 09:49:20;;;;;;;18.83;8.03;;;;;;;11.57;51.49;97509.41;5039436;28;20205;-71
2022/03/20 09:51:46;;;;;;;25.77;8.53;;;;;;;11.66;51.13;97508.50;5039422;28;20201;-71
2022/03/20 09:54:14;;;;;;;22.40;8.13;;;;;;;11.77;53.29;97510.91;5038665;28;20240;-71
2022/03/20 09:56:41;;;;;;;23.57;8.47;;;;;;;11.72;51.58;97509.69;5039558;28;20362;-71
2022/03/20 09:59:07;;;;;;;20.40;8.03;;;;;;;11.86;51.92;97506.50;5039200;28;20267;-71
2022/03/20 10:01:35;;;;;;;26.47;9.67;;;;;;;12.04;52.05;97509.94;5039608;28;20213;-72
2022/03/20 10:04:09;;;;;;;20.07;7.93;;;;;;;12.21;51.53;97513.34;5038839;28;20572;-73
2022/03/20 10:06:41;;;;;;;24.17;9.90;;;;;;;12.42;49.89;97511.16;5038845;28;20200;-72
2022/03/20 10:09:09;;;;;;;21.30;8.97;;;;;;;12.59;51.35;97509.41;5039317;28;20209;-72
2022/03/20 10:11:39;;;;;;;22.53;7.70;;;;;;;12.64;48.55;97513.25;5039275;28;20203;-73
2022/03/20 10:14:07;;;;;;;25.10;8.60;;;;;;;12.60;49.77;97511.91;5038109;28;20307;-72
2022/03/20 10:16:33;;;;;;;22.43;7.87;;;;;;;12.57;50.14;97508.75;5039408;28;20611;-72
2022/03/20 10:19:00;;;;;;;20.23;8.43;;;;;;;12.74;50.60;97505.19;5039088;28;20205;-73
2022/03/20 10:24:23;;;;;;;21.63;7.70;;;;;;;13.47;46.64;97506.88;5093786;27;20586;-72
2022/03/20 10:26:53;;;;;;;22.13;8.52;;;;;;;12.94;47.44;97518.00;5095060;28;20203;-72
2022/03/20 10:29:20;;;;;;;24.90;8.47;;;;;;;13.73;48.21;97512.84;5094068;28;20230;-72
2022/03/20 10:31:50;;;;;;;30.50;9.57;;;;;;;14.10;51.26;97511.38;5095013;28;20253;-72
2022/03/20 10:34:17;;;;;;;20.38;8.75;;;;;;;14.24;47.75;97513.34;5093590;28;20280;-72
2022/03/20 10:36:45;;;;;;;18.17;7.43;;;;;;;14.30;46.63;97512.66;5094802;28;20970;-71
2022/03/20 10:39:12;;;;;;;26.23;9.70;;;;;;;14.21;46.46;97512.84;5094970;28;20206;-72
2022/03/20 10:41:40;;;;;;;30.70;10.45;;;;;;;14.59;47.27;97509.41;5095003;28;20206;-73
2022/03/20 10:44:14;;;;;;;18.92;7.70;;;;;;;14.89;43.01;97498.84;5090762;28;20215;-73
2022/03/20 10:46:41;;;;;;;18.15;6.78;;;;;;;14.66;40.90;97513.88;5094723;28;20205;-72
2022/03/20 10:49:09;;;;;;;18.85;8.13;;;;;;;14.86;40.99;97518.59;5095661;27;20555;-73
2022/03/20 10:51:41;;;;;;;19.42;7.72;;;;;;;13.83;40.39;97520.66;5094018;28;20318;-72
2022/03/20 10:54:10;;;;;;;19.88;7.72;;;;;;;13.87;42.57;97520.13;5093712;28;20831;-72
2022/03/20 10:56:38;;;;;;;17.42;7.55;;;;;;;14.24;41.78;97517.81;5094799;28;20202;-72
2022/03/20 10:59:16;;;;;;;27.40;8.70;;;;;;;15.03;46.16;97512.25;5094055;28;20199;-72
2022/03/20 11:01:44;;;;;;;25.10;7.50;;;;;;;15.05;42.60;97510.22;5093817;28;20199;-72
2022/03/20 11:04:12;;;;;;;20.77;8.20;;;;;;;14.97;41.82;97507.63;5093006;28;20231;-72
2022/03/20 11:06:41;;;;;;;22.35;8.45;;;;;;;15.09;42.58;97511.53;5094197;28;20203;-72
2022/03/20 11:09:08;;;;;;;27.58;8.45;;;;;;;15.07;42.04;97507.41;5094405;28;20203;-73
2022/03/20 11:11:38;;;;;;;26.60;7.82;;;;;;;15.49;43.25;97506.00;5093801;28;20211;-72
2022/03/20 11:14:05;;;;;;;25.60;9.02;;;;;;;15.02;41.58;97501.78;5093723;28;20222;-72
2022/03/20 11:16:36;;;;;;;20.90;9.02;;;;;;;15.53;42.30;97501.97;5093426;28;20563;-73
2022/03/20 11:19:05;;;;;;;21.83;7.82;;;;;;;15.00;40.44;97509.09;5094648;28;20256;-72
2022/03/20 11:21:35;;;;;;;20.58;7.78;;;;;;;14.51;41.65;97509.44;5093405;28;20196;-72
2022/03/20 11:24:02;;;;;;;21.05;8.55;;;;;;;14.95;40.53;97504.28;5092863;28;20226;-73
2022/03/20 11:26:30;;;;;;;18.40;7.85;;;;;;;14.99;41.50;97510.09;5093548;28;20234;-72
2022/03/20 11:29:00;;;;;;;24.77;8.43;;;;;;;14.94;40.75;97515.09;5093913;28;20206;-72
2022/03/20 11:31:27;;;;;;;15.68;7.07;;;;;;;14.77;42.00;97511.69;5093111;28;20199;-72
2022/03/20 11:33:56;;;;;;;17.65;6.82;;;;;;;15.61;41.33;97501.94;5089347;28;20215;-73
2022/03/20 11:36:23;;;;;;;17.75;6.95;;;;;;;14.81;41.16;97504.22;5079588;28;20204;-73
2022/03/20 11:39:11;;;;;;;18.38;8.00;;;;;;;15.27;40.53;97490.88;5079692;28;20200;-72
2022/03/20 11:41:37;;;;;;;23.45;8.95;;;;;;;15.27;40.00;97493.53;5079788;28;20200;-72
2022/03/20 11:44:15;;;;;;;17.80;7.13;;;;;;;15.79;38.28;97494.50;5076654;28;20224;-73
2022/03/20 11:46:43;;;;;;;19.70;8.05;;;;;;;15.63;39.81;97490.16;5079001;28;20217;-72
2022/03/20 11:49:24;;;;;;;21.85;7.63;;;;;;;15.90;40.14;97487.75;5079563;28;20200;-73
2022/03/20 11:52:02;;;;;;;20.92;7.93;;;;;;;15.61;38.68;97484.16;5079491;28;20192;-72
2022/03/20 11:54:31;;;;;;;15.93;6.63;;;;;;;15.26;38.11;97481.25;5078387;28;20226;-72
2022/03/20 11:56:58;;;;;;;17.38;7.15;;;;;;;15.33;37.56;97480.38;5079628;28;20262;-73
2022/03/20 11:59:48;;;;;;;21.80;7.53;;;;;;;16.08;38.17;97474.94;5081198;28;20249;-73
2022/03/20 12:02:16;;;;;;;23.58;8.25;;;;;;;16.22;38.27;97465.34;5078989;28;20203;-73
2022/03/20 12:05:02;;;;;;;15.98;6.72;;;;;;;16.44;35.76;97462.63;5079457;28;20730;-73
2022/03/20 12:07:40;;;;;;;23.52;7.75;;;;;;;15.52;38.83;97465.81;5079677;28;20204;-72
2022/03/20 12:10:20;;;;;;;20.48;7.47;;;;;;;16.40;37.28;97465.84;5078918;28;20196;-73
2022/03/20 12:13:19;;;;;;;20.75;7.30;;;;;;;16.67;36.84;97460.69;5078115;28;20245;-73
2022/03/20 12:15:47;;;;;;;22.55;8.10;;;;;;;16.47;37.63;97454.28;5045014;28;20706;-73